Nearby METAR Reports

 

KBED - Bedford, Massachusetts, USA
Distance from station: W 5mi, 9km
Updated: Sat, 23-Feb-2019 5:56pm EST
Mostly cloudy
Mostly cloudy
 Wind from ENE
Wind: ENE 3 mph , 6 km/h
Temperature: 34°F , 1°C
Dew Point: 19°F , -7°C
Humidity: 56%
Barometer: 1027.1 hPa
Clouds: Mostly cloudy
Visibility: 10 miles , 16 km
Cloud details: Mostly cloudy 20000 ft
2019/02/23 22:56 KBED 232256Z 07003KT 10SM BKN200 01/M07 A3033 RMK AO2 SLP286 T00111067
KBOS - Boston, Massachusetts, USA
Distance from station: SE 11mi, 18km
Updated: Sat, 23-Feb-2019 5:54pm EST
Mostly cloudy
Mostly cloudy
 Wind from ESE
Wind: ESE 9 mph , 15 km/h
Temperature: 36°F , 2°C
Wind Chill: 29°F , -2°C
Dew Point: 28°F , -2°C
Humidity: 75%
Barometer: 1027.8 hPa
Clouds: Mostly cloudy
Visibility: 10 miles , 16 km
Cloud details: Few Clouds 22000 ft
Mostly cloudy 25000 ft
2019/02/23 22:54 KBOS 232254Z 11008KT 10SM FEW220 BKN250 02/M02 A3035 RMK AO2 SLP277 T00171017
 
KBVY - Beverly, Massachusetts, USA
Distance from station: ENE 17mi, 27km
Updated: Sat, 23-Feb-2019 5:53pm EST
Clear
Clear
 Wind from ESE
Wind: ESE 3 mph , 6 km/h
Temperature: 34°F , 1°C
Dew Point: 25°F , -4°C
Humidity: 70%
Barometer: 1027.8 hPa
Clouds: Clear
Visibility: 10 miles , 16 km
2019/02/23 22:53 KBVY 232253Z 12003KT 10SM CLR 01/M04 A3035 RMK AO2 SLP274 T00111039
KMQE - East Milton, Massachusetts, USA
Distance from station: SSE 17mi, 28km
Updated: Sat, 23-Feb-2019 5:56pm EST

 Wind from S
Wind: S 7 mph , 11 km/h
Temperature: 34°F , 1°C
Wind Chill: 28°F , -2°C
Dew Point: 19°F , -7°C
Humidity: 56%
Barometer: 1026.1 hPa
2019/02/23 22:56 KMQE 232256Z AUTO 17006KT 01/M07 A3030 RMK AO1 SLP281 T00111072
 
KLWM - Lawrence, Massachusetts, USA
Distance from station: N 18mi, 29km
Updated: Sat, 23-Feb-2019 5:54pm EST
Clear
Clear
 Wind from E
Wind: E 3 mph , 6 km/h
Temperature: 36°F , 2°C
Dew Point: 18°F , -8°C
Humidity: 48%
Barometer: 1028.1 hPa
Clouds: Clear
Visibility: 10 miles , 16 km
2019/02/23 22:54 KLWM 232254Z 09003KT 10SM CLR 02/M08 A3036 RMK AO2 SLP283 T00171078
KOWD - Norwood, Massachusetts, USA
Distance from station: S 19mi, 31km
Updated: Sat, 23-Feb-2019 5:53pm EST
Clear
Clear
 Wind from SSE
Wind: SSE 3 mph , 6 km/h
Temperature: 37°F , 3°C
Dew Point: 19°F , -7°C
Humidity: 48%
Barometer: 1027.4 hPa
Clouds: Clear
Visibility: 10 miles , 16 km
2019/02/23 22:53 KOWD 232253Z 16003KT 10SM CLR 03/M07 A3034 RMK AO2 SLP275 T00281067
 
KASH - Nashua/Boire Fld, New Hampshire, USA
Distance from station: NW 28mi, 45km
Updated: Sat, 23-Feb-2019 5:56pm EST
Clear
Clear
 Wind from calm
Wind: Calm
Temperature: 30°F , -1°C
Dew Point: 23°F , -5°C
Humidity: 75%
Barometer: 1027.4 hPa
Clouds: Clear
Visibility: 10 miles , 16 km
2019/02/23 22:56 KASH 232256Z 00000KT 10SM CLR M01/M05 A3034 RMK AO2 SLP284 T10061050 $
KFIT - Fitchburg, Massachusetts, USA
Distance from station: WNW 29mi, 47km
Updated: Sat, 23-Feb-2019 5:52pm EST
Clear
Clear
 Wind from calm
Wind: Calm
Temperature: 34°F , 1°C
Dew Point: 19°F , -7°C
Humidity: 56%
Barometer: 1027.1 hPa
Clouds: Clear
Visibility: 10 miles , 16 km
2019/02/23 22:52 KFIT 232252Z AUTO 00000KT 10SM CLR 01/M07 A3033 RMK AO2 SLP275 T00061072
 
KMHT - Manchester, New Hampshire, USA
Distance from station: NNW 35mi, 56km
Updated: Sat, 23-Feb-2019 5:53pm EST
Mostly cloudy
Mostly cloudy
 Wind from ESE
Wind: ESE 5 mph , 7 km/h
Temperature: 36°F , 2°C
Wind Chill: 32°F , 0°C
Dew Point: 18°F , -8°C
Humidity: 48%
Barometer: 1026.8 hPa
Clouds: Mostly cloudy
Visibility: 10 miles , 16 km
Cloud details: Few Clouds 15000 ft
Mostly cloudy 25000 ft
2019/02/23 22:53 KMHT 232253Z 12004KT 10SM FEW150 BKN250 02/M08 A3032 RMK AO2 SLP285 T00171083
KGHG - Marshfield, Massachusetts, USA
Distance from station: SE 37mi, 59km
Updated: Sat, 23-Feb-2019 5:55pm EST
Clear
Clear
 Wind from calm
Wind: Calm
Temperature: 34°F , 1°C
Dew Point: 30°F , -1°C
Humidity: 87%
Barometer: 1027.8 hPa
Clouds: Clear
Visibility: 10 miles , 16 km
2019/02/23 22:55 KGHG 232255Z AUTO 00000KT 10SM CLR 01/M01 A3035 RMK AO2
 
KORH - Worcester, Massachusetts, USA
Distance from station: WSW 37mi, 59km
Updated: Sat, 23-Feb-2019 5:54pm EST
Clear
Clear
 Wind from calm
Wind: Calm
Temperature: 34°F , 1°C
Dew Point: 19°F , -7°C
Humidity: 56%
Barometer: 1025.7 hPa
Clouds: Clear
Visibility: 10 miles , 16 km
2019/02/23 22:54 KORH 232254Z 00000KT 10SM CLR 01/M07 A3029 RMK AO2 SLP272 T00061072
KSFZ - Pawtucket, Rhode Island, USA
Distance from station: SSW 41mi, 65km
Updated: Sat, 23-Feb-2019 5:56pm EST
Clear
Clear
 Wind from varies
Wind: varies 3 mph , 6 km/h
Temperature: 36°F , 2°C
Dew Point: 25°F , -4°C
Humidity: 65%
Barometer: 1026.8 hPa
Clouds: Clear
Visibility: 10 miles , 16 km
2019/02/23 22:56 KSFZ 232256Z AUTO VRB03KT 10SM CLR 02/M04 A3032 RMK AO2 SLP217 T00171044 FZRANO
 
KTAN - Taunton, Massachusetts, USA
Distance from station: SSE 41mi, 66km
Updated: Sat, 23-Feb-2019 5:52pm EST
Clear
Clear
 Wind from calm
Wind: Calm
Temperature: 37°F , 3°C
Dew Point: 21°F , -6°C
Humidity: 52%
Barometer: 1027.4 hPa
Clouds: Clear
Visibility: 10 miles , 16 km
2019/02/23 22:52 KTAN 232252Z AUTO 00000KT 10SM CLR 03/M06 A3034 RMK AO2 SLP275 T00281061
KPYM - Plymouth, Massachusetts, USA
Distance from station: SSE 44mi, 71km
Updated: Sat, 23-Feb-2019 5:52pm EST
Clear
Clear
 Wind from S
Wind: S 3 mph , 6 km/h
Temperature: 36°F , 2°C
Dew Point: 25°F , -4°C
Humidity: 65%
Barometer: 1027.8 hPa
Clouds: Clear
Visibility: 10 miles , 16 km
2019/02/23 22:52 KPYM 232252Z AUTO 19003KT 10SM CLR 02/M04 A3035 RMK AO2 SLP280 T00171039
 
KPSM - Portsmouth/Pease, New Hampshire, USA
Distance from station: NNE 46mi, 74km
Updated: Sat, 23-Feb-2019 5:56pm EST
Mostly cloudy
Mostly cloudy
 Wind from SE
Wind: SE 3 mph , 6 km/h
Temperature: 32°F , 0°C
Dew Point: 25°F , -4°C
Humidity: 75%
Barometer: 1027.4 hPa
Clouds: Mostly cloudy
Visibility: 10 miles , 16 km
Cloud details: Mostly cloudy 25000 ft
2019/02/23 22:56 KPSM 232256Z 13003KT 10SM BKN250 00/M04 A3034 RMK AO2A SLP278 T00001039
KAFN - Jaffrey, New Hampshire, USA
Distance from station: WNW 47mi, 76km
Updated: Sat, 23-Feb-2019 5:52pm EST
Clear
Clear
 Wind from calm
Wind: Calm
Temperature: 28°F , -2°C
Dew Point: 19°F , -7°C
Humidity: 69%
Barometer: 1025.4 hPa
Clouds: Clear
Visibility: 10 miles , 16 km
2019/02/23 22:52 KAFN 232252Z AUTO 00000KT 10SM CLR M02/M07 A3028 RMK AO2 SLP275 T10171067